Terminal Aerodrome Forecast
Issued by NWS

Current Version | Previous Version | Graphics & Text | Print | Product List | Glossary On
Versions: 1 2 3 4 5 6 7 8 9 10 11 12 13 14 15 16 17 18 19 20 21 22 23
636
FTUS41 KRLX 172104 AAB
TAFCKB
TAF AMD
KCKB 172104Z 1721/1818 35005KT 1/2SM SN FG OVC006
      TEMPO 1722/1802 2SM -SN BR OVC012
     FM180200 00000KT 3SM -RASN OVC008
     FM180400 26007KT P6SM BKN008
     FM181100 27006KT P6SM BKN025=

USA.gov is the U.S. government's official web portal to all federal, state and local government web resources and services.